sensor_id;sensor_type;location;lat;lon;timestamp;P1;durP1;ratioP1;P2;durP2;ratioP2
70233;SDS011;57622;42.630;23.378;2022-07-29T00:01:15;10.05;;;6.50;;
70233;SDS011;57622;42.630;23.378;2022-07-29T00:03:41;12.68;;;6.50;;
70233;SDS011;57622;42.630;23.378;2022-07-29T00:06:07;10.27;;;6.43;;
70233;SDS011;57622;42.630;23.378;2022-07-29T00:08:32;10.77;;;6.30;;
70233;SDS011;57622;42.630;23.378;2022-07-29T00:10:58;12.45;;;6.78;;
70233;SDS011;57622;42.630;23.378;2022-07-29T00:13:24;10.35;;;6.80;;
70233;SDS011;57622;42.630;23.378;2022-07-29T00:15:49;10.38;;;6.47;;
70233;SDS011;57622;42.630;23.378;2022-07-29T00:18:14;11.55;;;7.07;;
70233;SDS011;57622;42.630;23.378;2022-07-29T00:20:40;11.65;;;6.82;;
70233;SDS011;57622;42.630;23.378;2022-07-29T00:23:05;11.85;;;6.70;;
70233;SDS011;57622;42.630;23.378;2022-07-29T00:25:31;15.75;;;7.10;;
70233;SDS011;57622;42.630;23.378;2022-07-29T00:27:56;12.07;;;7.05;;
70233;SDS011;57622;42.630;23.378;2022-07-29T00:30:22;10.88;;;6.82;;
70233;SDS011;57622;42.630;23.378;2022-07-29T00:32:47;11.73;;;7.40;;
70233;SDS011;57622;42.630;23.378;2022-07-29T00:35:13;12.13;;;6.95;;
70233;SDS011;57622;42.630;23.378;2022-07-29T00:37:57;14.75;;;6.78;;
70233;SDS011;57622;42.630;23.378;2022-07-29T00:40:22;11.50;;;7.00;;
70233;SDS011;57622;42.630;23.378;2022-07-29T00:42:48;11.35;;;6.70;;
70233;SDS011;57622;42.630;23.378;2022-07-29T00:45:16;11.10;;;6.55;;
70233;SDS011;57622;42.630;23.378;2022-07-29T00:47:41;13.50;;;7.60;;
70233;SDS011;57622;42.630;23.378;2022-07-29T00:50:07;12.05;;;6.80;;
70233;SDS011;57622;42.630;23.378;2022-07-29T00:52:36;12.02;;;7.15;;
70233;SDS011;57622;42.630;23.378;2022-07-29T00:55:03;11.93;;;7.32;;
70233;SDS011;57622;42.630;23.378;2022-07-29T00:57:30;10.95;;;6.93;;
70233;SDS011;57622;42.630;23.378;2022-07-29T00:59:56;14.38;;;7.75;;
70233;SDS011;57622;42.630;23.378;2022-07-29T01:02:21;11.27;;;6.95;;
70233;SDS011;57622;42.630;23.378;2022-07-29T01:04:46;11.90;;;7.38;;
70233;SDS011;57622;42.630;23.378;2022-07-29T01:07:12;11.13;;;6.82;;
70233;SDS011;57622;42.630;23.378;2022-07-29T01:09:38;12.70;;;6.82;;
70233;SDS011;57622;42.630;23.378;2022-07-29T01:12:04;10.48;;;6.70;;
70233;SDS011;57622;42.630;23.378;2022-07-29T01:14:31;12.13;;;7.20;;
70233;SDS011;57622;42.630;23.378;2022-07-29T01:30:35;11.48;;;6.40;;
70233;SDS011;57622;42.630;23.378;2022-07-29T01:33:06;10.80;;;6.75;;
70233;SDS011;57622;42.630;23.378;2022-07-29T01:35:36;12.25;;;6.93;;
70233;SDS011;57622;42.630;23.378;2022-07-29T01:38:12;12.48;;;6.57;;
70233;SDS011;57622;42.630;23.378;2022-07-29T01:40:52;11.13;;;6.28;;
70233;SDS011;57622;42.630;23.378;2022-07-29T01:43:35;10.65;;;6.60;;
70233;SDS011;57622;42.630;23.378;2022-07-29T01:46:06;11.82;;;6.70;;
70233;SDS011;57622;42.630;23.378;2022-07-29T01:48:47;10.10;;;6.63;;
70233;SDS011;57622;42.630;23.378;2022-07-29T01:51:19;11.52;;;6.97;;
70233;SDS011;57622;42.630;23.378;2022-07-29T01:53:55;14.50;;;6.65;;
70233;SDS011;57622;42.630;23.378;2022-07-29T01:56:30;11.98;;;6.55;;
70233;SDS011;57622;42.630;23.378;2022-07-29T01:58:58;12.07;;;6.60;;
70233;SDS011;57622;42.630;23.378;2022-07-29T02:01:25;10.30;;;6.03;;
70233;SDS011;57622;42.630;23.378;2022-07-29T02:03:52;9.90;;;6.10;;
70233;SDS011;57622;42.630;23.378;2022-07-29T02:06:21;10.75;;;6.30;;
70233;SDS011;57622;42.630;23.378;2022-07-29T02:08:48;11.18;;;6.97;;
70233;SDS011;57622;42.630;23.378;2022-07-29T02:11:16;10.73;;;6.90;;
70233;SDS011;57622;42.630;23.378;2022-07-29T02:13:42;12.32;;;7.07;;
70233;SDS011;57622;42.630;23.378;2022-07-29T02:16:09;11.48;;;6.93;;
70233;SDS011;57622;42.630;23.378;2022-07-29T02:18:37;10.93;;;6.72;;
70233;SDS011;57622;42.630;23.378;2022-07-29T02:21:05;13.20;;;7.00;;
70233;SDS011;57622;42.630;23.378;2022-07-29T02:23:32;12.60;;;7.05;;
70233;SDS011;57622;42.630;23.378;2022-07-29T02:26:00;12.45;;;6.93;;
70233;SDS011;57622;42.630;23.378;2022-07-29T02:28:27;13.00;;;6.65;;
70233;SDS011;57622;42.630;23.378;2022-07-29T02:30:55;9.18;;;5.80;;
70233;SDS011;57622;42.630;23.378;2022-07-29T02:33:24;15.45;;;6.43;;
70233;SDS011;57622;42.630;23.378;2022-07-29T02:35:51;10.55;;;6.63;;
70233;SDS011;57622;42.630;23.378;2022-07-29T02:38:17;10.88;;;6.82;;
70233;SDS011;57622;42.630;23.378;2022-07-29T02:41:05;11.15;;;6.18;;
70233;SDS011;57622;42.630;23.378;2022-07-29T02:43:36;11.27;;;6.63;;
70233;SDS011;57622;42.630;23.378;2022-07-29T02:46:03;10.70;;;6.30;;
70233;SDS011;57622;42.630;23.378;2022-07-29T02:48:43;11.07;;;6.25;;
70233;SDS011;57622;42.630;23.378;2022-07-29T02:51:25;14.55;;;6.65;;
70233;SDS011;57622;42.630;23.378;2022-07-29T02:53:57;9.27;;;5.97;;
70233;SDS011;57622;42.630;23.378;2022-07-29T02:56:27;12.45;;;6.07;;
70233;SDS011;57622;42.630;23.378;2022-07-29T02:58:54;10.85;;;6.10;;
70233;SDS011;57622;42.630;23.378;2022-07-29T03:01:23;12.05;;;5.93;;
70233;SDS011;57622;42.630;23.378;2022-07-29T03:03:53;9.80;;;6.00;;
70233;SDS011;57622;42.630;23.378;2022-07-29T03:06:20;10.38;;;6.38;;
70233;SDS011;57622;42.630;23.378;2022-07-29T03:08:48;10.93;;;6.00;;
70233;SDS011;57622;42.630;23.378;2022-07-29T03:11:15;11.48;;;6.35;;
70233;SDS011;57622;42.630;23.378;2022-07-29T03:13:42;10.75;;;5.85;;
70233;SDS011;57622;42.630;23.378;2022-07-29T03:16:09;12.85;;;6.50;;
70233;SDS011;57622;42.630;23.378;2022-07-29T03:18:35;12.20;;;6.20;;
70233;SDS011;57622;42.630;23.378;2022-07-29T03:21:01;11.43;;;6.45;;
70233;SDS011;57622;42.630;23.378;2022-07-29T03:23:28;11.60;;;6.70;;
70233;SDS011;57622;42.630;23.378;2022-07-29T03:25:53;10.55;;;6.47;;
70233;SDS011;57622;42.630;23.378;2022-07-29T03:28:19;10.80;;;6.53;;
70233;SDS011;57622;42.630;23.378;2022-07-29T03:30:45;12.98;;;6.25;;
70233;SDS011;57622;42.630;23.378;2022-07-29T03:33:11;11.98;;;6.38;;
70233;SDS011;57622;42.630;23.378;2022-07-29T03:35:37;10.90;;;6.50;;
70233;SDS011;57622;42.630;23.378;2022-07-29T03:38:03;13.20;;;6.40;;
70233;SDS011;57622;42.630;23.378;2022-07-29T03:40:32;11.57;;;6.30;;
70233;SDS011;57622;42.630;23.378;2022-07-29T03:43:03;10.30;;;6.00;;
70233;SDS011;57622;42.630;23.378;2022-07-29T03:45:30;11.15;;;6.80;;
70233;SDS011;57622;42.630;23.378;2022-07-29T03:47:59;13.10;;;6.20;;
70233;SDS011;57622;42.630;23.378;2022-07-29T03:50:27;14.63;;;6.30;;
70233;SDS011;57622;42.630;23.378;2022-07-29T03:52:55;17.42;;;6.80;;
70233;SDS011;57622;42.630;23.378;2022-07-29T03:55:20;13.15;;;6.57;;
70233;SDS011;57622;42.630;23.378;2022-07-29T03:57:46;11.20;;;6.40;;
70233;SDS011;57622;42.630;23.378;2022-07-29T04:00:13;12.63;;;5.90;;
70233;SDS011;57622;42.630;23.378;2022-07-29T04:02:40;11.32;;;6.30;;
70233;SDS011;57622;42.630;23.378;2022-07-29T04:05:13;10.65;;;5.70;;
70233;SDS011;57622;42.630;23.378;2022-07-29T04:07:40;9.90;;;6.13;;
70233;SDS011;57622;42.630;23.378;2022-07-29T04:10:08;13.43;;;6.43;;
70233;SDS011;57622;42.630;23.378;2022-07-29T04:12:33;12.38;;;6.43;;
70233;SDS011;57622;42.630;23.378;2022-07-29T04:14:59;14.25;;;6.55;;
70233;SDS011;57622;42.630;23.378;2022-07-29T04:17:24;11.45;;;6.53;;
70233;SDS011;57622;42.630;23.378;2022-07-29T04:19:50;10.77;;;6.18;;
70233;SDS011;57622;42.630;23.378;2022-07-29T04:22:15;12.88;;;6.47;;
70233;SDS011;57622;42.630;23.378;2022-07-29T04:24:41;12.77;;;6.40;;
70233;SDS011;57622;42.630;23.378;2022-07-29T04:27:06;13.93;;;6.03;;
70233;SDS011;57622;42.630;23.378;2022-07-29T04:29:32;10.20;;;6.13;;
70233;SDS011;57622;42.630;23.378;2022-07-29T04:31:57;9.75;;;5.85;;
70233;SDS011;57622;42.630;23.378;2022-07-29T04:34:22;10.07;;;5.82;;
70233;SDS011;57622;42.630;23.378;2022-07-29T04:36:48;12.55;;;5.85;;
70233;SDS011;57622;42.630;23.378;2022-07-29T04:39:13;10.07;;;5.25;;
70233;SDS011;57622;42.630;23.378;2022-07-29T04:41:39;11.48;;;5.57;;
70233;SDS011;57622;42.630;23.378;2022-07-29T04:44:05;9.32;;;6.10;;
70233;SDS011;57622;42.630;23.378;2022-07-29T04:46:31;11.02;;;5.53;;
70233;SDS011;57622;42.630;23.378;2022-07-29T04:48:57;13.20;;;5.80;;
70233;SDS011;57622;42.630;23.378;2022-07-29T04:51:22;18.13;;;6.10;;
70233;SDS011;57622;42.630;23.378;2022-07-29T04:53:48;10.85;;;6.32;;
70233;SDS011;57622;42.630;23.378;2022-07-29T04:56:13;10.80;;;6.10;;
70233;SDS011;57622;42.630;23.378;2022-07-29T04:58:38;11.63;;;6.32;;
70233;SDS011;57622;42.630;23.378;2022-07-29T05:01:04;12.32;;;5.85;;
70233;SDS011;57622;42.630;23.378;2022-07-29T05:03:30;12.38;;;5.97;;
70233;SDS011;57622;42.630;23.378;2022-07-29T05:05:55;11.35;;;6.20;;
70233;SDS011;57622;42.630;23.378;2022-07-29T05:08:21;12.48;;;6.13;;
70233;SDS011;57622;42.630;23.378;2022-07-29T05:10:46;14.13;;;6.20;;
70233;SDS011;57622;42.630;23.378;2022-07-29T05:13:12;11.82;;;6.47;;
70233;SDS011;57622;42.630;23.378;2022-07-29T05:15:37;10.50;;;5.90;;
70233;SDS011;57622;42.630;23.378;2022-07-29T05:18:03;11.55;;;6.32;;
70233;SDS011;57622;42.630;23.378;2022-07-29T05:20:29;11.32;;;6.20;;
70233;SDS011;57622;42.630;23.378;2022-07-29T05:22:56;10.40;;;6.18;;
70233;SDS011;57622;42.630;23.378;2022-07-29T05:25:23;11.73;;;6.28;;
70233;SDS011;57622;42.630;23.378;2022-07-29T05:27:49;9.70;;;6.00;;
70233;SDS011;57622;42.630;23.378;2022-07-29T05:30:14;10.77;;;6.10;;
70233;SDS011;57622;42.630;23.378;2022-07-29T05:32:40;11.40;;;6.15;;
70233;SDS011;57622;42.630;23.378;2022-07-29T05:35:06;10.55;;;6.68;;
70233;SDS011;57622;42.630;23.378;2022-07-29T05:37:31;12.48;;;5.82;;
70233;SDS011;57622;42.630;23.378;2022-07-29T05:39:58;9.93;;;6.00;;
70233;SDS011;57622;42.630;23.378;2022-07-29T05:42:24;11.50;;;6.50;;
70233;SDS011;57622;42.630;23.378;2022-07-29T05:44:50;10.55;;;6.07;;
70233;SDS011;57622;42.630;23.378;2022-07-29T05:47:15;12.55;;;7.10;;
70233;SDS011;57622;42.630;23.378;2022-07-29T05:49:41;11.15;;;6.72;;
70233;SDS011;57622;42.630;23.378;2022-07-29T05:52:06;12.27;;;7.00;;
70233;SDS011;57622;42.630;23.378;2022-07-29T05:54:34;11.85;;;7.00;;
70233;SDS011;57622;42.630;23.378;2022-07-29T05:56:59;12.20;;;6.43;;
70233;SDS011;57622;42.630;23.378;2022-07-29T05:59:26;13.25;;;6.50;;
70233;SDS011;57622;42.630;23.378;2022-07-29T06:01:51;11.82;;;6.38;;
70233;SDS011;57622;42.630;23.378;2022-07-29T06:04:17;14.32;;;7.25;;
70233;SDS011;57622;42.630;23.378;2022-07-29T06:06:42;13.32;;;6.95;;
70233;SDS011;57622;42.630;23.378;2022-07-29T06:09:08;11.60;;;6.75;;
70233;SDS011;57622;42.630;23.378;2022-07-29T06:11:33;11.02;;;6.63;;
70233;SDS011;57622;42.630;23.378;2022-07-29T06:13:59;10.73;;;6.80;;
70233;SDS011;57622;42.630;23.378;2022-07-29T06:16:24;12.25;;;6.63;;
70233;SDS011;57622;42.630;23.378;2022-07-29T06:18:50;11.70;;;6.45;;
70233;SDS011;57622;42.630;23.378;2022-07-29T06:21:15;13.77;;;6.10;;
70233;SDS011;57622;42.630;23.378;2022-07-29T06:23:41;12.18;;;6.90;;
70233;SDS011;57622;42.630;23.378;2022-07-29T06:26:07;13.77;;;6.50;;
70233;SDS011;57622;42.630;23.378;2022-07-29T06:28:33;17.23;;;6.57;;
70233;SDS011;57622;42.630;23.378;2022-07-29T06:30:59;12.00;;;6.53;;
70233;SDS011;57622;42.630;23.378;2022-07-29T06:33:24;16.95;;;6.97;;
70233;SDS011;57622;42.630;23.378;2022-07-29T06:35:50;14.13;;;7.20;;
70233;SDS011;57622;42.630;23.378;2022-07-29T06:38:15;16.10;;;7.90;;
70233;SDS011;57622;42.630;23.378;2022-07-29T06:40:44;12.40;;;7.15;;
70233;SDS011;57622;42.630;23.378;2022-07-29T06:43:30;11.77;;;7.18;;
70233;SDS011;57622;42.630;23.378;2022-07-29T06:46:13;10.90;;;6.85;;
70233;SDS011;57622;42.630;23.378;2022-07-29T06:48:41;12.80;;;6.05;;
70233;SDS011;57622;42.630;23.378;2022-07-29T06:51:10;12.32;;;6.57;;
70233;SDS011;57622;42.630;23.378;2022-07-29T06:53:36;14.23;;;6.50;;
70233;SDS011;57622;42.630;23.378;2022-07-29T06:56:04;12.13;;;6.53;;
70233;SDS011;57622;42.630;23.378;2022-07-29T06:58:30;10.18;;;6.03;;
70233;SDS011;57622;42.630;23.378;2022-07-29T07:00:57;11.45;;;6.38;;
70233;SDS011;57622;42.630;23.378;2022-07-29T07:03:23;10.60;;;6.00;;
70233;SDS011;57622;42.630;23.378;2022-07-29T07:05:49;11.20;;;5.90;;
70233;SDS011;57622;42.630;23.378;2022-07-29T07:08:16;9.38;;;5.50;;
70233;SDS011;57622;42.630;23.378;2022-07-29T07:10:42;9.65;;;5.25;;
70233;SDS011;57622;42.630;23.378;2022-07-29T07:13:08;8.88;;;5.50;;
70233;SDS011;57622;42.630;23.378;2022-07-29T07:15:35;11.48;;;5.60;;
70233;SDS011;57622;42.630;23.378;2022-07-29T07:18:01;9.23;;;4.90;;
70233;SDS011;57622;42.630;23.378;2022-07-29T07:20:26;8.60;;;5.03;;
70233;SDS011;57622;42.630;23.378;2022-07-29T07:22:52;8.75;;;5.07;;
70233;SDS011;57622;42.630;23.378;2022-07-29T07:25:17;10.90;;;5.55;;
70233;SDS011;57622;42.630;23.378;2022-07-29T07:27:43;11.50;;;4.70;;
70233;SDS011;57622;42.630;23.378;2022-07-29T07:30:09;9.45;;;5.20;;
70233;SDS011;57622;42.630;23.378;2022-07-29T07:32:35;9.40;;;4.78;;
70233;SDS011;57622;42.630;23.378;2022-07-29T07:35:01;11.48;;;4.82;;
70233;SDS011;57622;42.630;23.378;2022-07-29T07:37:28;9.30;;;4.70;;
70233;SDS011;57622;42.630;23.378;2022-07-29T07:39:53;9.10;;;4.50;;
70233;SDS011;57622;42.630;23.378;2022-07-29T07:42:19;9.30;;;4.10;;
70233;SDS011;57622;42.630;23.378;2022-07-29T07:44:45;11.23;;;4.38;;
70233;SDS011;57622;42.630;23.378;2022-07-29T07:47:13;8.98;;;4.30;;
70233;SDS011;57622;42.630;23.378;2022-07-29T07:52:04;8.45;;;4.13;;
70233;SDS011;57622;42.630;23.378;2022-07-29T07:54:30;11.23;;;5.28;;
70233;SDS011;57622;42.630;23.378;2022-07-29T07:56:56;8.00;;;4.38;;
70233;SDS011;57622;42.630;23.378;2022-07-29T07:59:21;12.50;;;4.45;;
70233;SDS011;57622;42.630;23.378;2022-07-29T08:01:47;11.95;;;5.50;;
70233;SDS011;57622;42.630;23.378;2022-07-29T08:04:12;13.27;;;4.75;;
70233;SDS011;57622;42.630;23.378;2022-07-29T08:06:38;9.15;;;4.30;;
70233;SDS011;57622;42.630;23.378;2022-07-29T08:09:04;8.43;;;4.47;;
70233;SDS011;57622;42.630;23.378;2022-07-29T08:11:30;10.77;;;4.18;;
70233;SDS011;57622;42.630;23.378;2022-07-29T08:13:55;7.70;;;4.30;;
70233;SDS011;57622;42.630;23.378;2022-07-29T08:16:21;7.43;;;3.90;;
70233;SDS011;57622;42.630;23.378;2022-07-29T08:18:47;7.97;;;3.88;;
70233;SDS011;57622;42.630;23.378;2022-07-29T08:21:13;7.65;;;3.83;;
70233;SDS011;57622;42.630;23.378;2022-07-29T08:23:40;7.57;;;3.70;;
70233;SDS011;57622;42.630;23.378;2022-07-29T08:26:11;8.60;;;3.78;;
70233;SDS011;57622;42.630;23.378;2022-07-29T08:28:37;7.78;;;3.50;;
70233;SDS011;57622;42.630;23.378;2022-07-29T08:31:03;8.98;;;3.40;;
70233;SDS011;57622;42.630;23.378;2022-07-29T08:33:29;9.15;;;3.70;;
70233;SDS011;57622;42.630;23.378;2022-07-29T08:35:54;9.10;;;3.50;;
70233;SDS011;57622;42.630;23.378;2022-07-29T08:38:20;10.65;;;3.90;;
70233;SDS011;57622;42.630;23.378;2022-07-29T08:40:45;8.82;;;4.50;;
70233;SDS011;57622;42.630;23.378;2022-07-29T08:43:11;10.90;;;4.03;;
70233;SDS011;57622;42.630;23.378;2022-07-29T08:45:47;9.65;;;3.70;;
70233;SDS011;57622;42.630;23.378;2022-07-29T08:48:15;10.48;;;3.80;;
70233;SDS011;57622;42.630;23.378;2022-07-29T08:50:43;8.40;;;3.78;;
70233;SDS011;57622;42.630;23.378;2022-07-29T08:53:13;8.45;;;3.72;;
70233;SDS011;57622;42.630;23.378;2022-07-29T08:55:44;12.48;;;3.63;;
70233;SDS011;57622;42.630;23.378;2022-07-29T08:58:12;13.52;;;4.15;;
70233;SDS011;57622;42.630;23.378;2022-07-29T09:00:41;20.40;;;4.47;;
70233;SDS011;57622;42.630;23.378;2022-07-29T09:03:07;9.07;;;3.90;;
70233;SDS011;57622;42.630;23.378;2022-07-29T09:05:36;7.55;;;4.00;;
70233;SDS011;57622;42.630;23.378;2022-07-29T09:08:06;10.75;;;4.93;;
70233;SDS011;57622;42.630;23.378;2022-07-29T09:10:31;8.32;;;4.10;;
70233;SDS011;57622;42.630;23.378;2022-07-29T09:12:57;8.50;;;4.30;;
70233;SDS011;57622;42.630;23.378;2022-07-29T09:15:23;10.18;;;4.20;;
70233;SDS011;57622;42.630;23.378;2022-07-29T09:17:49;7.75;;;4.28;;
70233;SDS011;57622;42.630;23.378;2022-07-29T09:20:15;8.18;;;4.50;;
70233;SDS011;57622;42.630;23.378;2022-07-29T09:22:42;7.50;;;4.17;;
70233;SDS011;57622;42.630;23.378;2022-07-29T09:25:08;7.65;;;4.28;;
70233;SDS011;57622;42.630;23.378;2022-07-29T09:27:37;7.95;;;4.40;;
70233;SDS011;57622;42.630;23.378;2022-07-29T09:30:04;7.05;;;3.92;;
70233;SDS011;57622;42.630;23.378;2022-07-29T09:32:31;9.88;;;4.68;;
70233;SDS011;57622;42.630;23.378;2022-07-29T09:37:43;8.45;;;4.70;;
70233;SDS011;57622;42.630;23.378;2022-07-29T09:40:13;12.30;;;4.82;;
70233;SDS011;57622;42.630;23.378;2022-07-29T09:42:40;8.52;;;4.35;;
70233;SDS011;57622;42.630;23.378;2022-07-29T09:45:06;7.68;;;4.15;;
70233;SDS011;57622;42.630;23.378;2022-07-29T09:50:12;9.23;;;4.32;;
70233;SDS011;57622;42.630;23.378;2022-07-29T09:52:45;7.65;;;4.18;;
70233;SDS011;57622;42.630;23.378;2022-07-29T09:55:12;13.43;;;5.18;;
70233;SDS011;57622;42.630;23.378;2022-07-29T09:57:38;16.35;;;5.00;;
70233;SDS011;57622;42.630;23.378;2022-07-29T10:02:36;9.07;;;5.05;;
70233;SDS011;57622;42.630;23.378;2022-07-29T10:05:04;10.23;;;4.65;;
70233;SDS011;57622;42.630;23.378;2022-07-29T10:07:58;8.10;;;4.65;;
70233;SDS011;57622;42.630;23.378;2022-07-29T10:10:24;10.30;;;4.13;;
70233;SDS011;57622;42.630;23.378;2022-07-29T10:12:55;9.20;;;4.68;;
70233;SDS011;57622;42.630;23.378;2022-07-29T10:15:23;8.00;;;4.20;;
70233;SDS011;57622;42.630;23.378;2022-07-29T10:17:50;8.82;;;4.50;;
70233;SDS011;57622;42.630;23.378;2022-07-29T10:20:17;8.35;;;4.47;;
70233;SDS011;57622;42.630;23.378;2022-07-29T10:22:43;8.20;;;4.53;;
70233;SDS011;57622;42.630;23.378;2022-07-29T10:25:11;10.15;;;4.63;;
70233;SDS011;57622;42.630;23.378;2022-07-29T10:27:38;8.18;;;4.30;;
70233;SDS011;57622;42.630;23.378;2022-07-29T10:30:05;8.30;;;4.40;;
70233;SDS011;57622;42.630;23.378;2022-07-29T10:46:54;8.43;;;4.03;;
70233;SDS011;57622;42.630;23.378;2022-07-29T10:49:21;7.97;;;4.07;;
70233;SDS011;57622;42.630;23.378;2022-07-29T10:51:54;8.45;;;4.10;;
70233;SDS011;57622;42.630;23.378;2022-07-29T10:54:37;11.45;;;4.43;;
70233;SDS011;57622;42.630;23.378;2022-07-29T11:05:07;8.82;;;3.50;;
70233;SDS011;57622;42.630;23.378;2022-07-29T11:10:38;8.80;;;4.10;;
70233;SDS011;57622;42.630;23.378;2022-07-29T11:13:04;8.32;;;3.85;;
70233;SDS011;57622;42.630;23.378;2022-07-29T11:15:32;7.85;;;3.95;;
70233;SDS011;57622;42.630;23.378;2022-07-29T11:18:19;6.53;;;3.42;;
70233;SDS011;57622;42.630;23.378;2022-07-29T11:20:46;10.00;;;3.90;;
70233;SDS011;57622;42.630;23.378;2022-07-29T11:26:12;9.18;;;4.00;;
70233;SDS011;57622;42.630;23.378;2022-07-29T11:28:42;7.53;;;4.00;;
70233;SDS011;57622;42.630;23.378;2022-07-29T11:39:41;8.30;;;4.03;;
70233;SDS011;57622;42.630;23.378;2022-07-29T11:47:35;7.57;;;3.60;;
70233;SDS011;57622;42.630;23.378;2022-07-29T11:50:03;7.53;;;4.00;;
70233;SDS011;57622;42.630;23.378;2022-07-29T11:52:35;8.15;;;4.30;;
70233;SDS011;57622;42.630;23.378;2022-07-29T11:55:07;9.15;;;4.13;;
70233;SDS011;57622;42.630;23.378;2022-07-29T11:57:34;8.57;;;3.90;;
70233;SDS011;57622;42.630;23.378;2022-07-29T12:00:01;10.70;;;4.20;;
70233;SDS011;57622;42.630;23.378;2022-07-29T12:02:39;9.52;;;3.97;;
70233;SDS011;57622;42.630;23.378;2022-07-29T12:05:06;8.65;;;4.30;;
70233;SDS011;57622;42.630;23.378;2022-07-29T12:07:33;7.78;;;4.18;;
70233;SDS011;57622;42.630;23.378;2022-07-29T12:09:59;7.88;;;3.97;;
70233;SDS011;57622;42.630;23.378;2022-07-29T12:12:26;9.75;;;4.68;;
70233;SDS011;57622;42.630;23.378;2022-07-29T12:14:52;8.43;;;4.30;;
70233;SDS011;57622;42.630;23.378;2022-07-29T12:19:56;10.35;;;4.80;;
70233;SDS011;57622;42.630;23.378;2022-07-29T12:22:30;9.23;;;4.93;;
70233;SDS011;57622;42.630;23.378;2022-07-29T12:25:01;9.10;;;4.60;;
70233;SDS011;57622;42.630;23.378;2022-07-29T12:27:28;10.57;;;4.50;;
70233;SDS011;57622;42.630;23.378;2022-07-29T12:29:55;7.72;;;4.60;;
70233;SDS011;57622;42.630;23.378;2022-07-29T12:32:22;7.70;;;4.53;;
70233;SDS011;57622;42.630;23.378;2022-07-29T12:34:48;9.88;;;4.75;;
70233;SDS011;57622;42.630;23.378;2022-07-29T12:37:14;8.20;;;4.70;;
70233;SDS011;57622;42.630;23.378;2022-07-29T12:39:40;7.72;;;4.35;;
70233;SDS011;57622;42.630;23.378;2022-07-29T12:42:12;12.68;;;4.80;;
70233;SDS011;57622;42.630;23.378;2022-07-29T12:44:45;7.53;;;4.20;;
70233;SDS011;57622;42.630;23.378;2022-07-29T12:47:15;9.55;;;4.90;;
70233;SDS011;57622;42.630;23.378;2022-07-29T12:49:41;8.63;;;4.85;;
70233;SDS011;57622;42.630;23.378;2022-07-29T12:52:25;8.70;;;4.82;;
70233;SDS011;57622;42.630;23.378;2022-07-29T12:54:53;9.35;;;4.47;;
70233;SDS011;57622;42.630;23.378;2022-07-29T12:57:18;9.55;;;5.07;;
70233;SDS011;57622;42.630;23.378;2022-07-29T12:59:44;7.65;;;4.38;;
70233;SDS011;57622;42.630;23.378;2022-07-29T13:02:21;9.02;;;4.63;;
70233;SDS011;57622;42.630;23.378;2022-07-29T13:04:57;7.97;;;4.80;;
70233;SDS011;57622;42.630;23.378;2022-07-29T13:07:25;10.23;;;4.75;;
70233;SDS011;57622;42.630;23.378;2022-07-29T13:09:53;18.73;;;6.22;;
70233;SDS011;57622;42.630;23.378;2022-07-29T13:12:19;7.90;;;4.63;;
70233;SDS011;57622;42.630;23.378;2022-07-29T13:14:49;12.13;;;4.90;;
70233;SDS011;57622;42.630;23.378;2022-07-29T13:19:48;8.60;;;4.85;;
70233;SDS011;57622;42.630;23.378;2022-07-29T13:22:17;12.30;;;5.30;;
70233;SDS011;57622;42.630;23.378;2022-07-29T13:24:46;8.30;;;4.60;;
70233;SDS011;57622;42.630;23.378;2022-07-29T13:27:16;9.75;;;4.65;;
70233;SDS011;57622;42.630;23.378;2022-07-29T13:29:43;8.43;;;4.78;;
70233;SDS011;57622;42.630;23.378;2022-07-29T13:32:08;9.15;;;4.70;;
70233;SDS011;57622;42.630;23.378;2022-07-29T13:34:34;17.00;;;4.60;;
70233;SDS011;57622;42.630;23.378;2022-07-29T13:36:59;10.98;;;5.03;;
70233;SDS011;57622;42.630;23.378;2022-07-29T13:39:25;9.90;;;4.75;;
70233;SDS011;57622;42.630;23.378;2022-07-29T13:41:51;38.53;;;6.20;;
70233;SDS011;57622;42.630;23.378;2022-07-29T13:44:16;16.52;;;5.07;;
70233;SDS011;57622;42.630;23.378;2022-07-29T13:46:42;15.75;;;5.03;;
70233;SDS011;57622;42.630;23.378;2022-07-29T13:49:07;11.48;;;4.50;;
70233;SDS011;57622;42.630;23.378;2022-07-29T13:51:33;8.98;;;4.32;;
70233;SDS011;57622;42.630;23.378;2022-07-29T13:53:58;9.50;;;4.57;;
70233;SDS011;57622;42.630;23.378;2022-07-29T13:56:23;8.20;;;4.25;;
70233;SDS011;57622;42.630;23.378;2022-07-29T13:58:49;12.77;;;4.35;;
70233;SDS011;57622;42.630;23.378;2022-07-29T14:01:14;8.15;;;4.18;;
70233;SDS011;57622;42.630;23.378;2022-07-29T14:03:40;9.18;;;4.70;;
70233;SDS011;57622;42.630;23.378;2022-07-29T14:06:08;9.70;;;4.63;;
70233;SDS011;57622;42.630;23.378;2022-07-29T14:08:33;9.10;;;4.75;;
70233;SDS011;57622;42.630;23.378;2022-07-29T14:10:59;9.15;;;4.40;;
70233;SDS011;57622;42.630;23.378;2022-07-29T14:13:25;7.88;;;3.92;;
70233;SDS011;57622;42.630;23.378;2022-07-29T14:15:50;8.68;;;4.32;;
70233;SDS011;57622;42.630;23.378;2022-07-29T14:18:16;10.70;;;4.82;;
70233;SDS011;57622;42.630;23.378;2022-07-29T14:20:41;9.10;;;4.53;;
70233;SDS011;57622;42.630;23.378;2022-07-29T14:23:07;9.75;;;4.40;;
70233;SDS011;57622;42.630;23.378;2022-07-29T14:25:32;8.23;;;4.30;;
70233;SDS011;57622;42.630;23.378;2022-07-29T14:27:57;7.90;;;4.45;;
70233;SDS011;57622;42.630;23.378;2022-07-29T14:30:23;9.32;;;4.75;;
70233;SDS011;57622;42.630;23.378;2022-07-29T14:32:48;9.23;;;4.60;;
70233;SDS011;57622;42.630;23.378;2022-07-29T14:35:14;9.20;;;4.80;;
70233;SDS011;57622;42.630;23.378;2022-07-29T14:37:40;9.93;;;4.82;;
70233;SDS011;57622;42.630;23.378;2022-07-29T14:40:05;8.10;;;4.55;;
70233;SDS011;57622;42.630;23.378;2022-07-29T14:42:31;8.48;;;4.63;;
70233;SDS011;57622;42.630;23.378;2022-07-29T14:44:57;8.18;;;4.63;;
70233;SDS011;57622;42.630;23.378;2022-07-29T14:47:22;9.07;;;6.07;;
70233;SDS011;57622;42.630;23.378;2022-07-29T14:49:48;9.05;;;4.93;;
70233;SDS011;57622;42.630;23.378;2022-07-29T14:52:14;8.55;;;5.13;;
70233;SDS011;57622;42.630;23.378;2022-07-29T14:54:40;9.32;;;4.88;;
70233;SDS011;57622;42.630;23.378;2022-07-29T14:57:05;9.02;;;5.00;;
70233;SDS011;57622;42.630;23.378;2022-07-29T14:59:30;8.60;;;5.03;;
70233;SDS011;57622;42.630;23.378;2022-07-29T15:01:56;8.48;;;4.88;;
70233;SDS011;57622;42.630;23.378;2022-07-29T15:04:22;7.75;;;4.50;;
70233;SDS011;57622;42.630;23.378;2022-07-29T15:06:47;9.70;;;4.95;;
70233;SDS011;57622;42.630;23.378;2022-07-29T15:09:13;8.80;;;4.75;;
70233;SDS011;57622;42.630;23.378;2022-07-29T15:11:39;9.23;;;4.82;;
70233;SDS011;57622;42.630;23.378;2022-07-29T15:14:05;10.95;;;4.55;;
70233;SDS011;57622;42.630;23.378;2022-07-29T15:16:30;7.53;;;4.40;;
70233;SDS011;57622;42.630;23.378;2022-07-29T15:18:56;7.80;;;4.40;;
70233;SDS011;57622;42.630;23.378;2022-07-29T15:21:22;8.15;;;4.18;;
70233;SDS011;57622;42.630;23.378;2022-07-29T15:23:48;7.65;;;4.25;;
70233;SDS011;57622;42.630;23.378;2022-07-29T15:26:14;9.68;;;4.30;;
70233;SDS011;57622;42.630;23.378;2022-07-29T15:28:39;10.20;;;4.40;;
70233;SDS011;57622;42.630;23.378;2022-07-29T15:31:05;7.97;;;3.65;;
70233;SDS011;57622;42.630;23.378;2022-07-29T15:33:30;7.95;;;4.20;;
70233;SDS011;57622;42.630;23.378;2022-07-29T15:35:56;9.27;;;4.80;;
70233;SDS011;57622;42.630;23.378;2022-07-29T15:38:21;9.98;;;4.70;;